createdAt,value
2019-06-26T00:00:36.248Z,0
2019-06-26T00:01:34.635Z,0
2019-06-26T00:02:36.006Z,0
2019-06-26T00:03:37.361Z,0
2019-06-26T00:04:38.740Z,0
2019-06-26T00:05:40.146Z,0
2019-06-26T00:06:41.500Z,0
2019-06-26T00:07:42.856Z,0
2019-06-26T00:08:44.218Z,0
2019-06-26T00:09:45.610Z,0
2019-06-26T00:10:46.951Z,0
2019-06-26T00:11:48.319Z,0
2019-06-26T00:12:49.671Z,0
2019-06-26T00:13:51.038Z,0
2019-06-26T00:14:52.409Z,0
2019-06-26T00:15:53.750Z,0
2019-06-26T00:16:55.118Z,0
2019-06-26T00:17:56.481Z,0
2019-06-26T00:18:57.842Z,0
2019-06-26T00:19:59.224Z,0
2019-06-26T00:21:00.587Z,0
2019-06-26T00:22:01.956Z,0
2019-06-26T00:23:03.325Z,0
2019-06-26T00:24:04.693Z,0
2019-06-26T00:25:06.050Z,0
2019-06-26T00:26:07.415Z,0
2019-06-26T00:27:08.798Z,0
2019-06-26T00:28:10.152Z,0
2019-06-26T00:29:11.558Z,0
2019-06-26T00:30:12.875Z,0
2019-06-26T00:31:14.233Z,0
2019-06-26T00:32:15.677Z,0
2019-06-26T00:33:17.057Z,0
2019-06-26T00:34:18.447Z,0
2019-06-26T00:35:19.822Z,0
2019-06-26T00:36:21.220Z,0
2019-06-26T00:37:22.632Z,0
2019-06-26T00:38:23.986Z,0
2019-06-26T00:39:25.472Z,0
2019-06-26T00:40:26.702Z,0
2019-06-26T00:41:28.071Z,0
2019-06-26T00:42:29.435Z,0
2019-06-26T00:43:41.828Z,0
2019-06-26T00:44:32.132Z,0
2019-06-26T00:45:33.498Z,0
2019-06-26T00:46:34.856Z,0
2019-06-26T00:47:36.252Z,0
2019-06-26T00:48:37.603Z,0
2019-06-26T00:49:38.992Z,0
2019-06-26T00:50:40.338Z,0
2019-06-26T00:51:41.698Z,0
2019-06-26T00:52:43.066Z,0
2019-06-26T00:53:44.429Z,0
2019-06-26T00:54:45.840Z,0
2019-06-26T00:55:47.199Z,0
2019-06-26T00:56:48.566Z,0
2019-06-26T00:57:49.927Z,0
2019-06-26T00:58:51.346Z,0
2019-06-26T00:59:52.687Z,0
2019-06-26T01:00:54.053Z,0
2019-06-26T01:01:55.414Z,0
2019-06-26T01:02:56.791Z,0
2019-06-26T01:03:58.143Z,0
2019-06-26T01:04:59.505Z,0
2019-06-26T01:06:00.872Z,0
2019-06-26T01:07:02.246Z,0
2019-06-26T01:08:03.605Z,0
2019-06-26T01:09:04.967Z,0
2019-06-26T01:10:06.347Z,0
2019-06-26T01:11:07.720Z,0
2019-06-26T01:12:09.283Z,0
2019-06-26T01:13:10.411Z,0
2019-06-26T01:14:11.775Z,0
2019-06-26T01:15:13.143Z,0
2019-06-26T01:16:14.513Z,0
2019-06-26T01:17:15.896Z,0
2019-06-26T01:18:17.251Z,0
2019-06-26T01:19:18.621Z,0
2019-06-26T01:20:19.977Z,0
2019-06-26T01:21:21.353Z,0
2019-06-26T01:22:22.716Z,0
2019-06-26T01:23:24.075Z,0
2019-06-26T01:24:25.431Z,0
2019-06-26T01:25:26.792Z,0
2019-06-26T01:26:28.156Z,0
2019-06-26T01:27:29.537Z,0
2019-06-26T01:28:30.937Z,0
2019-06-26T01:29:32.703Z,0
2019-06-26T01:30:33.618Z,0
2019-06-26T01:31:34.973Z,0
2019-06-26T01:32:36.349Z,0
2019-06-26T01:33:37.711Z,0
2019-06-26T01:34:39.068Z,0
2019-06-26T01:35:40.429Z,0
2019-06-26T01:36:41.786Z,0
2019-06-26T01:37:43.156Z,0
2019-06-26T01:38:44.551Z,0
2019-06-26T01:39:45.876Z,0
2019-06-26T01:40:47.240Z,0
2019-06-26T01:41:48.596Z,0
2019-06-26T01:42:49.967Z,0
2019-06-26T01:43:51.379Z,0
2019-06-26T01:44:52.743Z,0
2019-06-26T01:45:54.118Z,0
2019-06-26T01:46:55.486Z,0
2019-06-26T01:47:56.847Z,0
2019-06-26T01:48:58.208Z,0
2019-06-26T01:49:59.572Z,0
2019-06-26T01:51:00.936Z,0
2019-06-26T01:52:02.376Z,0
2019-06-26T01:53:03.692Z,0
2019-06-26T01:54:05.062Z,0
2019-06-26T01:55:06.420Z,0
2019-06-26T01:56:07.790Z,0
2019-06-26T01:57:09.153Z,0
2019-06-26T01:58:10.525Z,0
2019-06-26T01:59:11.882Z,0
2019-06-26T02:00:13.351Z,0
2019-06-26T02:01:14.568Z,0
2019-06-26T02:02:15.942Z,0
2019-06-26T02:03:17.293Z,0
2019-06-26T02:04:18.668Z,0
2019-06-26T02:05:20.028Z,0
2019-06-26T02:06:21.427Z,0
2019-06-26T02:07:22.798Z,0
2019-06-26T02:08:24.161Z,0
2019-06-26T02:09:25.523Z,0
2019-06-26T02:10:26.882Z,0
2019-06-26T02:11:28.275Z,0
2019-06-26T02:12:29.637Z,0
2019-06-26T02:13:31.012Z,0
2019-06-26T02:14:32.385Z,0
2019-06-26T02:15:33.761Z,0
2019-06-26T02:16:35.122Z,0
2019-06-26T02:17:36.488Z,0
2019-06-26T02:18:37.848Z,0
2019-06-26T02:19:39.202Z,0
2019-06-26T02:20:40.573Z,0
2019-06-26T02:21:41.936Z,0
2019-06-26T02:22:43.298Z,0
2019-06-26T02:23:44.653Z,0
2019-06-26T02:24:46.009Z,0
2019-06-26T02:25:47.373Z,0
2019-06-26T02:26:48.737Z,0
2019-06-26T02:27:50.104Z,0
2019-06-26T02:28:51.466Z,0
2019-06-26T02:29:52.846Z,0
2019-06-26T02:30:54.215Z,0
2019-06-26T02:31:55.578Z,0
2019-06-26T02:32:56.938Z,0
2019-06-26T02:33:58.304Z,0
2019-06-26T02:34:59.663Z,0
2019-06-26T02:36:01.035Z,0
2019-06-26T02:37:02.397Z,0
2019-06-26T02:38:03.768Z,0
2019-06-26T02:39:05.134Z,0
2019-06-26T02:40:06.487Z,0
2019-06-26T02:41:07.859Z,0
2019-06-26T02:42:09.225Z,0
2019-06-26T02:43:10.586Z,0
2019-06-26T02:44:11.999Z,0
2019-06-26T02:45:13.363Z,0
2019-06-26T02:46:14.734Z,0
2019-06-26T02:47:20.269Z,0
2019-06-26T02:48:17.409Z,0
2019-06-26T02:49:18.779Z,0
2019-06-26T02:50:20.150Z,0
2019-06-26T02:51:21.519Z,0
2019-06-26T02:52:22.873Z,0
2019-06-26T02:53:24.243Z,0
2019-06-26T02:54:25.615Z,0
2019-06-26T02:55:26.965Z,0
2019-06-26T02:56:28.329Z,0
2019-06-26T02:57:29.689Z,0
2019-06-26T02:58:31.048Z,0
2019-06-26T02:59:32.417Z,0
2019-06-26T03:00:33.769Z,0
2019-06-26T03:01:35.131Z,0
2019-06-26T03:02:36.500Z,0
2019-06-26T03:03:37.861Z,0
2019-06-26T03:04:39.228Z,0
2019-06-26T03:05:40.616Z,0
2019-06-26T03:06:41.974Z,0
2019-06-26T03:07:43.328Z,0
2019-06-26T03:08:44.692Z,0
2019-06-26T03:09:46.053Z,5
2019-06-26T03:10:47.424Z,5
2019-06-26T03:11:48.787Z,5
2019-06-26T03:12:50.161Z,5
2019-06-26T03:13:51.532Z,5
2019-06-26T03:15:07.771Z,5
2019-06-26T03:15:54.224Z,5
2019-06-26T03:16:55.590Z,11
2019-06-26T03:17:56.957Z,11
2019-06-26T03:18:58.325Z,11
2019-06-26T03:19:59.751Z,11
2019-06-26T03:21:07.749Z,11
2019-06-26T03:22:09.132Z,16
2019-06-26T03:23:10.497Z,16
2019-06-26T03:24:11.872Z,16
2019-06-26T03:25:13.251Z,16
2019-06-26T03:26:14.619Z,16
2019-06-26T03:27:16.023Z,22
2019-06-26T03:28:17.397Z,22
2019-06-26T03:29:18.752Z,22
2019-06-26T03:30:20.107Z,28
2019-06-26T03:31:21.488Z,28
2019-06-26T03:32:22.858Z,28
2019-06-26T03:33:24.253Z,28
2019-06-26T03:34:25.598Z,33
2019-06-26T03:35:26.973Z,33
2019-06-26T03:36:28.333Z,33
2019-06-26T03:37:29.700Z,39
2019-06-26T03:38:31.072Z,39
2019-06-26T03:39:32.448Z,45
2019-06-26T03:40:33.834Z,45
2019-06-26T03:41:35.207Z,45
2019-06-26T03:42:36.593Z,50
2019-06-26T03:43:37.959Z,50
2019-06-26T03:44:39.318Z,56
2019-06-26T03:45:40.683Z,56
2019-06-26T03:46:42.044Z,61
2019-06-26T03:47:43.410Z,61
2019-06-26T03:48:44.779Z,61
2019-06-26T03:49:46.148Z,67
2019-06-26T03:50:47.509Z,67
2019-06-26T03:51:48.873Z,73
2019-06-26T03:52:50.243Z,73
2019-06-26T03:53:51.608Z,78
2019-06-26T03:54:52.995Z,78
2019-06-26T03:55:54.360Z,84
2019-06-26T03:56:55.739Z,84
2019-06-26T03:57:57.100Z,90
2019-06-26T03:58:58.473Z,90
2019-06-26T03:59:59.824Z,95
2019-06-26T04:01:01.200Z,95
2019-06-26T04:02:02.740Z,101
2019-06-26T04:03:04.095Z,101
2019-06-26T04:04:05.473Z,106
2019-06-26T04:05:06.869Z,106
2019-06-26T04:06:08.242Z,112
2019-06-26T04:07:09.608Z,112
2019-06-26T04:08:10.970Z,118
2019-06-26T04:09:12.348Z,118
2019-06-26T04:10:13.706Z,118
2019-06-26T04:11:15.076Z,118
2019-06-26T04:12:16.442Z,118
2019-06-26T04:13:17.808Z,129
2019-06-26T04:14:19.271Z,123
2019-06-26T04:15:20.499Z,129
2019-06-26T04:16:21.875Z,129
2019-06-26T04:17:23.240Z,135
2019-06-26T04:18:24.610Z,135
2019-06-26T04:19:25.975Z,140
2019-06-26T04:20:27.361Z,140
2019-06-26T04:21:28.746Z,146
2019-06-26T04:22:30.134Z,146
2019-06-26T04:23:31.473Z,146
2019-06-26T04:24:32.844Z,151
2019-06-26T04:25:34.214Z,151
2019-06-26T04:26:35.576Z,151
2019-06-26T04:27:36.977Z,157
2019-06-26T04:28:38.345Z,157
2019-06-26T04:29:39.701Z,163
2019-06-26T04:30:41.070Z,163
2019-06-26T04:31:42.464Z,163
2019-06-26T04:32:43.824Z,168
2019-06-26T04:33:45.196Z,168
2019-06-26T04:34:46.569Z,174
2019-06-26T04:35:47.933Z,180
2019-06-26T04:36:49.309Z,180
2019-06-26T04:37:50.681Z,185
2019-06-26T04:38:52.049Z,185
2019-06-26T04:39:53.414Z,191
2019-06-26T04:40:54.779Z,191
2019-06-26T04:41:56.149Z,196
2019-06-26T04:42:57.516Z,196
2019-06-26T04:43:58.891Z,202
2019-06-26T04:45:00.265Z,202
2019-06-26T04:46:01.634Z,208
2019-06-26T04:47:03.001Z,208
2019-06-26T04:48:07.071Z,213
2019-06-26T04:49:05.708Z,213
2019-06-26T04:50:07.082Z,219
2019-06-26T04:51:08.445Z,219
2019-06-26T04:52:09.816Z,225
2019-06-26T04:53:11.208Z,225
2019-06-26T04:54:12.551Z,230
2019-06-26T04:55:13.974Z,230
2019-06-26T04:56:15.328Z,236
2019-06-26T04:57:16.698Z,236
2019-06-26T04:58:18.066Z,236
2019-06-26T04:59:19.431Z,241
2019-06-26T05:00:21.859Z,241
2019-06-26T05:01:22.146Z,247
2019-06-26T05:02:23.499Z,247
2019-06-26T05:03:24.868Z,253
2019-06-26T05:04:26.242Z,253
2019-06-26T05:05:39.161Z,253
2019-06-26T05:06:28.938Z,258
2019-06-26T05:07:30.306Z,258
2019-06-26T05:08:31.679Z,264
2019-06-26T05:09:33.050Z,264
2019-06-26T05:10:34.420Z,270
2019-06-26T05:11:35.784Z,270
2019-06-26T05:12:37.160Z,275
2019-06-26T05:13:38.520Z,275
2019-06-26T05:14:39.891Z,281
2019-06-26T05:15:41.264Z,281
2019-06-26T05:16:42.641Z,281
2019-06-26T05:17:44.013Z,286
2019-06-26T05:18:45.388Z,286
2019-06-26T05:19:46.760Z,292
2019-06-26T05:20:48.130Z,292
2019-06-26T05:21:49.497Z,298
2019-06-26T05:22:50.872Z,298
2019-06-26T05:23:52.256Z,298
2019-06-26T05:24:53.610Z,298
2019-06-26T05:25:54.971Z,303
2019-06-26T05:26:56.333Z,303
2019-06-26T05:27:57.708Z,309
2019-06-26T05:28:59.088Z,309
2019-06-26T05:30:00.451Z,315
2019-06-26T05:31:01.828Z,315
2019-06-26T05:32:03.299Z,320
2019-06-26T05:33:04.670Z,320
2019-06-26T05:34:06.041Z,326
2019-06-26T05:35:07.424Z,354
2019-06-26T05:36:08.787Z,433
2019-06-26T05:37:10.155Z,517
2019-06-26T05:38:11.522Z,708
2019-06-26T05:39:12.897Z,838
2019-06-26T05:40:14.250Z,815
2019-06-26T05:41:15.623Z,731
2019-06-26T05:42:16.992Z,635
2019-06-26T05:43:18.375Z,601
2019-06-26T05:44:19.750Z,618
2019-06-26T05:45:21.110Z,596
2019-06-26T05:46:30.884Z,579
2019-06-26T05:47:23.845Z,568
2019-06-26T05:48:25.209Z,573
2019-06-26T05:49:26.595Z,585
2019-06-26T05:50:27.953Z,613
2019-06-26T05:51:29.336Z,675
2019-06-26T05:52:30.709Z,748
2019-06-26T05:53:32.078Z,759
2019-06-26T05:54:33.453Z,787
2019-06-26T05:55:34.840Z,821
2019-06-26T05:56:36.200Z,815
2019-06-26T05:57:37.572Z,905
2019-06-26T05:58:38.950Z,911
2019-06-26T05:59:40.349Z,945
2019-06-26T06:00:41.685Z,990
2019-06-26T06:01:43.077Z,1018
2019-06-26T06:02:44.446Z,1029
2019-06-26T06:03:45.824Z,1046
2019-06-26T06:04:47.240Z,1074
2019-06-26T06:05:48.561Z,1063
2019-06-26T06:06:49.937Z,1068
2019-06-26T06:07:51.313Z,1085
2019-06-26T06:08:52.682Z,1085
2019-06-26T06:09:54.073Z,1108
2019-06-26T06:10:58.148Z,1141
2019-06-26T06:11:56.781Z,1147
2019-06-26T06:12:58.191Z,1141
2019-06-26T06:13:59.555Z,1158
2019-06-26T06:15:00.929Z,1164
2019-06-26T06:16:06.145Z,1175
2019-06-26T06:17:03.641Z,1209
2019-06-26T06:18:05.026Z,1226
2019-06-26T06:19:06.402Z,1237
2019-06-26T06:20:07.786Z,1248
2019-06-26T06:21:09.169Z,1265
2019-06-26T06:22:10.540Z,1271
2019-06-26T06:23:11.928Z,1271
2019-06-26T06:24:13.326Z,1282
2019-06-26T06:25:14.726Z,1321
2019-06-26T06:26:16.087Z,1305
2019-06-26T06:27:17.461Z,1327
2019-06-26T06:28:18.849Z,1355
2019-06-26T06:29:20.220Z,1338
2019-06-26T06:30:21.595Z,1423
2019-06-26T06:31:22.976Z,1423
2019-06-26T06:32:24.381Z,1406
2019-06-26T06:33:25.750Z,1440
2019-06-26T06:34:27.148Z,1451
2019-06-26T06:35:28.525Z,1428
2019-06-26T06:36:29.902Z,1428
2019-06-26T06:37:31.297Z,1434
2019-06-26T06:38:32.683Z,1417
2019-06-26T06:39:34.052Z,1411
2019-06-26T06:40:35.440Z,1423
2019-06-26T06:41:36.810Z,1479
2019-06-26T06:42:38.199Z,1552
2019-06-26T06:43:39.572Z,1569
2019-06-26T06:44:40.947Z,1597
2019-06-26T06:45:42.324Z,1620
2019-06-26T06:46:43.706Z,1636
2019-06-26T06:47:45.090Z,1670
2019-06-26T06:48:46.477Z,1631
2019-06-26T06:49:47.896Z,1648
2019-06-26T06:50:49.272Z,1676
2019-06-26T06:51:50.660Z,1721
2019-06-26T06:52:52.050Z,1681
2019-06-26T06:53:53.432Z,1670
2019-06-26T06:54:54.805Z,1687
2019-06-26T06:55:56.197Z,1710
2019-06-26T06:56:57.632Z,1738
2019-06-26T06:57:59.005Z,1749
2019-06-26T06:59:00.439Z,1788
2019-06-26T07:00:01.761Z,1749
2019-06-26T07:01:03.154Z,1732
2019-06-26T07:02:04.520Z,1783
2019-06-26T07:03:05.897Z,1788
2019-06-26T07:04:07.301Z,1839
2019-06-26T07:05:08.687Z,1850
2019-06-26T07:06:10.071Z,1816
2019-06-26T07:07:11.456Z,1822
2019-06-26T07:08:12.839Z,1738
2019-06-26T07:09:14.212Z,1715
2019-06-26T07:10:15.596Z,1755
2019-06-26T07:11:16.972Z,1805
2019-06-26T07:12:20.777Z,1839
2019-06-26T07:13:19.735Z,1822
2019-06-26T07:14:21.115Z,1833
2019-06-26T07:15:22.493Z,1850
2019-06-26T07:16:23.880Z,1890
2019-06-26T07:17:25.262Z,1884
2019-06-26T07:18:26.640Z,1890
2019-06-26T07:19:28.099Z,1935
2019-06-26T07:20:29.376Z,1974
2019-06-26T07:21:30.748Z,1957
2019-06-26T07:22:32.132Z,1940
2019-06-26T07:23:33.704Z,1980
2019-06-26T07:24:35.049Z,2008
2019-06-26T07:25:36.435Z,2025
2019-06-26T07:26:37.829Z,2041
2019-06-26T07:27:39.203Z,2047
2019-06-26T07:28:40.583Z,2041
2019-06-26T07:29:42.001Z,1985
2019-06-26T07:30:43.361Z,1912
2019-06-26T07:31:44.751Z,1935
2019-06-26T07:32:46.126Z,1957
2019-06-26T07:33:47.506Z,2025
2019-06-26T07:34:48.882Z,2070
2019-06-26T07:35:50.278Z,2036
2019-06-26T07:36:51.657Z,2143
2019-06-26T07:37:53.044Z,2115
2019-06-26T07:38:54.425Z,2086
2019-06-26T07:40:00.252Z,2160
2019-06-26T07:40:57.149Z,2188
2019-06-26T07:41:58.537Z,2165
2019-06-26T07:42:59.934Z,2148
2019-06-26T07:44:01.337Z,2148
2019-06-26T07:45:02.721Z,2250
2019-06-26T07:46:04.109Z,2278
2019-06-26T07:47:12.722Z,2210
2019-06-26T07:48:06.823Z,2205
2019-06-26T07:49:08.216Z,2221
2019-06-26T07:50:09.658Z,2328
2019-06-26T07:51:10.992Z,2385
2019-06-26T07:52:12.384Z,2334
2019-06-26T07:53:13.771Z,2334
2019-06-26T07:54:15.144Z,2345
2019-06-26T07:55:16.524Z,2300
2019-06-26T07:56:17.909Z,2340
2019-06-26T07:57:19.314Z,2401
2019-06-26T07:58:20.704Z,2430
2019-06-26T07:59:22.085Z,2508
2019-06-26T08:00:23.475Z,2458
2019-06-26T08:01:24.857Z,2418
2019-06-26T08:02:26.233Z,2486
2019-06-26T08:03:27.618Z,2424
2019-06-26T08:04:29.013Z,2283
2019-06-26T08:05:30.387Z,2300
2019-06-26T08:06:31.779Z,2452
2019-06-26T08:07:33.187Z,2480
2019-06-26T08:08:34.579Z,2452
2019-06-26T08:09:35.969Z,2390
2019-06-26T08:10:37.354Z,2368
2019-06-26T08:11:38.758Z,2508
2019-06-26T08:12:40.148Z,2469
2019-06-26T08:13:41.543Z,2418
2019-06-26T08:14:42.948Z,2531
2019-06-26T08:15:44.345Z,2536
2019-06-26T08:16:45.735Z,2593
2019-06-26T08:17:59.903Z,2503
2019-06-26T08:18:48.522Z,2486
2019-06-26T08:19:49.869Z,2514
2019-06-26T08:21:07.459Z,2587
2019-06-26T08:21:52.609Z,2621
2019-06-26T08:22:53.993Z,2694
2019-06-26T08:23:55.369Z,2716
2019-06-26T08:24:56.770Z,2638
2019-06-26T08:25:58.155Z,2761
2019-06-26T08:26:59.542Z,2801
2019-06-26T08:28:00.928Z,2756
2019-06-26T08:29:02.312Z,2688
2019-06-26T08:30:03.754Z,2739
2019-06-26T08:31:05.071Z,2767
2019-06-26T08:32:06.636Z,2767
2019-06-26T08:33:07.806Z,2739
2019-06-26T08:34:09.189Z,2840
2019-06-26T08:35:10.570Z,2716
2019-06-26T08:36:11.956Z,2773
2019-06-26T08:37:13.341Z,2790
2019-06-26T08:38:15.491Z,2683
2019-06-26T08:39:16.084Z,2863
2019-06-26T08:40:17.477Z,2880
2019-06-26T08:41:18.858Z,2733
2019-06-26T08:42:20.228Z,2705
2019-06-26T08:43:21.623Z,2761
2019-06-26T08:44:23.014Z,2750
2019-06-26T08:45:24.395Z,2688
2019-06-26T08:46:25.782Z,2626
2019-06-26T08:47:27.166Z,2840
2019-06-26T08:48:38.864Z,2823
2019-06-26T08:49:30.034Z,2773
2019-06-26T08:50:31.325Z,2936
2019-06-26T08:51:32.710Z,2896
2019-06-26T08:52:34.112Z,2801
2019-06-26T08:53:35.490Z,2947
2019-06-26T08:54:36.877Z,3071
2019-06-26T08:55:38.264Z,3043
2019-06-26T08:56:39.662Z,3048
2019-06-26T08:57:41.059Z,3003
2019-06-26T08:58:42.443Z,2857
2019-06-26T08:59:43.834Z,2958
2019-06-26T09:00:45.220Z,3009
2019-06-26T09:01:46.612Z,2930
2019-06-26T09:02:47.999Z,2941
2019-06-26T09:03:49.396Z,2857
2019-06-26T09:04:50.787Z,2784
2019-06-26T09:05:52.178Z,2902
2019-06-26T09:06:53.569Z,2874
2019-06-26T09:07:54.958Z,2874
2019-06-26T09:08:56.341Z,2902
2019-06-26T09:09:57.726Z,2936
2019-06-26T09:10:59.120Z,2930
2019-06-26T09:12:00.504Z,2936
2019-06-26T09:13:01.889Z,3031
2019-06-26T09:14:03.296Z,3071
2019-06-26T09:15:04.681Z,3116
2019-06-26T09:16:06.112Z,3043
2019-06-26T09:17:07.465Z,2908
2019-06-26T09:18:08.839Z,3043
2019-06-26T09:19:10.253Z,2930
2019-06-26T09:20:11.640Z,2880
2019-06-26T09:21:13.033Z,2986
2019-06-26T09:22:14.406Z,2880
2019-06-26T09:23:15.801Z,2835
2019-06-26T09:24:17.199Z,2806
2019-06-26T09:25:22.143Z,2868
2019-06-26T09:26:19.929Z,3015
2019-06-26T09:27:21.314Z,2947
2019-06-26T09:28:22.702Z,2902
2019-06-26T09:29:24.245Z,3020
2019-06-26T09:30:25.460Z,2970
2019-06-26T09:31:26.854Z,2936
2019-06-26T09:32:28.248Z,3324
2019-06-26T09:33:32.273Z,3076
2019-06-26T09:34:30.999Z,3076
2019-06-26T09:35:32.394Z,3189
2019-06-26T09:36:33.780Z,3093
2019-06-26T09:37:35.166Z,3150
2019-06-26T09:38:36.562Z,3099
2019-06-26T09:39:37.945Z,2975
2019-06-26T09:40:39.336Z,3031
2019-06-26T09:41:40.733Z,3048
2019-06-26T09:42:42.105Z,3026
2019-06-26T09:43:43.500Z,3026
2019-06-26T09:44:44.902Z,3172
2019-06-26T09:45:46.306Z,3093
2019-06-26T09:46:47.699Z,3076
2019-06-26T09:47:49.105Z,3296
2019-06-26T09:48:53.132Z,3324
2019-06-26T09:49:51.865Z,3138
2019-06-26T09:50:53.240Z,2576
2019-06-26T09:51:54.636Z,2086
2019-06-26T09:52:56.027Z,2531
2019-06-26T09:53:57.410Z,3127
2019-06-26T09:54:58.797Z,3071
2019-06-26T09:56:00.199Z,3110
2019-06-26T09:57:01.589Z,3121
2019-06-26T09:58:02.977Z,3138
2019-06-26T09:59:04.370Z,3026
2019-06-26T10:00:05.755Z,2919
2019-06-26T10:01:07.152Z,3003
2019-06-26T10:02:08.546Z,2998
2019-06-26T10:03:09.937Z,3324
2019-06-26T10:04:11.345Z,3532
2019-06-26T10:05:12.790Z,3414
2019-06-26T10:06:14.241Z,3318
2019-06-26T10:07:15.666Z,3375
2019-06-26T10:08:17.074Z,3313
2019-06-26T10:09:18.482Z,3346
2019-06-26T10:10:19.883Z,3436
2019-06-26T10:11:21.295Z,3363
2019-06-26T10:12:22.674Z,3307
2019-06-26T10:13:24.059Z,3324
2019-06-26T10:14:41.068Z,3346
2019-06-26T10:15:26.806Z,3425
2019-06-26T10:16:28.201Z,3431
2019-06-26T10:17:29.636Z,3324
2019-06-26T10:18:30.983Z,3256
2019-06-26T10:19:32.377Z,3313
2019-06-26T10:20:33.770Z,3369
2019-06-26T10:21:35.162Z,3335
2019-06-26T10:22:36.552Z,3217
2019-06-26T10:23:37.945Z,3082
2019-06-26T10:24:39.386Z,3037
2019-06-26T10:25:40.856Z,3015
2019-06-26T10:26:42.115Z,3138
2019-06-26T10:27:43.530Z,3285
2019-06-26T10:28:44.912Z,3240
2019-06-26T10:29:46.302Z,3273
2019-06-26T10:30:47.696Z,3268
2019-06-26T10:31:49.096Z,3307
2019-06-26T10:32:50.492Z,3436
2019-06-26T10:33:51.900Z,3369
2019-06-26T10:34:53.321Z,3245
2019-06-26T10:35:54.761Z,3048
2019-06-26T10:36:56.153Z,3082
2019-06-26T10:37:57.548Z,3195
2019-06-26T10:38:58.974Z,3245
2019-06-26T10:40:00.600Z,3341
2019-06-26T10:41:01.727Z,3307
2019-06-26T10:42:03.220Z,3228
2019-06-26T10:43:04.719Z,3200
2019-06-26T10:44:05.974Z,3268
2019-06-26T10:45:07.441Z,3346
2019-06-26T10:46:08.836Z,3290
2019-06-26T10:47:10.722Z,3082
2019-06-26T10:48:11.602Z,3121
2019-06-26T10:49:25.993Z,3155
2019-06-26T10:50:14.389Z,3217
2019-06-26T10:51:15.772Z,3324
2019-06-26T10:52:17.173Z,3262
2019-06-26T10:53:18.566Z,3369
2019-06-26T10:54:19.975Z,3262
2019-06-26T10:55:21.358Z,3189
2019-06-26T10:56:22.753Z,3234
2019-06-26T10:57:24.162Z,3223
2019-06-26T10:58:25.556Z,3346
2019-06-26T10:59:26.949Z,3403
2019-06-26T11:00:28.345Z,3341
2019-06-26T11:01:29.731Z,3375
2019-06-26T11:02:31.155Z,3358
2019-06-26T11:03:32.527Z,3240
2019-06-26T11:04:33.920Z,3256
2019-06-26T11:05:35.322Z,3324
2019-06-26T11:06:37.334Z,3262
2019-06-26T11:07:38.076Z,3307
2019-06-26T11:08:39.466Z,3335
2019-06-26T11:09:40.861Z,3420
2019-06-26T11:10:42.256Z,3358
2019-06-26T11:11:43.695Z,3296
2019-06-26T11:12:48.741Z,3481
2019-06-26T11:13:46.389Z,3313
2019-06-26T11:14:47.773Z,3324
2019-06-26T11:15:49.167Z,3285
2019-06-26T11:16:50.586Z,3251
2019-06-26T11:17:52.027Z,3127
2019-06-26T11:18:53.344Z,3054
2019-06-26T11:19:55.488Z,3206
2019-06-26T11:20:56.087Z,3285
2019-06-26T11:21:57.509Z,3279
2019-06-26T11:22:58.873Z,3335
2019-06-26T11:24:00.275Z,3121
2019-06-26T11:25:01.663Z,2975
2019-06-26T11:26:03.048Z,3245
2019-06-26T11:27:04.440Z,3200
2019-06-26T11:28:05.837Z,3127
2019-06-26T11:29:07.226Z,3251
2019-06-26T11:30:08.689Z,3324
2019-06-26T11:31:09.998Z,3363
2019-06-26T11:32:11.399Z,3369
2019-06-26T11:33:12.792Z,3442
2019-06-26T11:34:14.186Z,3465
2019-06-26T11:35:15.581Z,3330
2019-06-26T11:36:16.990Z,3256
2019-06-26T11:37:18.377Z,2992
2019-06-26T11:38:19.772Z,3121
2019-06-26T11:39:21.164Z,3375
2019-06-26T11:40:22.556Z,3386
2019-06-26T11:41:23.954Z,3335
2019-06-26T11:42:25.353Z,3296
2019-06-26T11:43:26.742Z,3318
2019-06-26T11:44:28.122Z,3459
2019-06-26T11:45:29.542Z,3515
2019-06-26T11:46:30.938Z,3459
2019-06-26T11:47:32.323Z,3656
2019-06-26T11:48:33.733Z,3661
2019-06-26T11:49:35.132Z,3616
2019-06-26T11:50:36.524Z,3487
2019-06-26T11:51:41.446Z,3391
2019-06-26T11:52:42.833Z,3408
2019-06-26T11:53:44.228Z,3510
2019-06-26T11:55:01.134Z,3448
2019-06-26T11:55:47.011Z,3307
2019-06-26T11:56:48.410Z,3431
2019-06-26T11:57:49.786Z,3431
2019-06-26T11:58:51.179Z,3234
2019-06-26T11:59:52.603Z,3346
2019-06-26T12:00:54.020Z,3358
2019-06-26T12:01:55.396Z,3296
2019-06-26T12:02:57.118Z,3240
2019-06-26T12:03:58.147Z,3150
2019-06-26T12:04:59.534Z,3251
2019-06-26T12:06:15.464Z,3144
2019-06-26T12:07:02.290Z,3172
2019-06-26T12:08:03.675Z,3144
2019-06-26T12:09:05.070Z,3273
2019-06-26T12:10:06.561Z,3178
2019-06-26T12:11:07.893Z,2998
2019-06-26T12:12:09.288Z,3150
2019-06-26T12:13:10.672Z,3172
2019-06-26T12:14:12.089Z,3211
2019-06-26T12:15:13.479Z,3065
2019-06-26T12:16:14.863Z,3009
2019-06-26T12:17:16.285Z,3088
2019-06-26T12:18:17.658Z,3088
2019-06-26T12:19:21.007Z,3155
2019-06-26T12:20:20.432Z,3178
2019-06-26T12:21:21.822Z,3110
2019-06-26T12:22:23.228Z,3015
2019-06-26T12:23:24.627Z,3065
2019-06-26T12:24:26.721Z,3048
2019-06-26T12:25:27.451Z,3009
2019-06-26T12:26:28.865Z,2936
2019-06-26T12:27:30.279Z,2970
2019-06-26T12:28:31.718Z,2992
2019-06-26T12:29:33.196Z,2874
2019-06-26T12:30:34.456Z,2913
2019-06-26T12:31:35.846Z,2835
2019-06-26T12:32:42.455Z,2818
2019-06-26T12:33:38.594Z,2896
2019-06-26T12:34:39.982Z,2941
2019-06-26T12:35:41.367Z,2874
2019-06-26T12:36:42.808Z,2846
2019-06-26T12:37:44.162Z,2891
2019-06-26T12:38:45.547Z,2874
2019-06-26T12:39:46.979Z,2700
2019-06-26T12:40:48.381Z,2570
2019-06-26T12:41:49.767Z,2531
2019-06-26T12:42:54.497Z,2503
2019-06-26T12:43:52.575Z,2407
2019-06-26T12:44:53.985Z,2295
2019-06-26T12:45:55.384Z,2503
2019-06-26T12:46:56.785Z,2705
2019-06-26T12:47:58.172Z,2660
2019-06-26T12:48:59.583Z,2790
2019-06-26T12:50:00.983Z,2851
2019-06-26T12:51:02.379Z,2593
2019-06-26T12:52:03.782Z,2615
2019-06-26T12:53:05.163Z,2638
2019-06-26T12:54:06.559Z,2581
2019-06-26T12:55:07.943Z,2700
2019-06-26T12:56:09.346Z,2722
2019-06-26T12:57:10.746Z,2615
2019-06-26T12:58:15.019Z,2632
2019-06-26T12:59:13.484Z,2520
2019-06-26T13:00:14.879Z,2311
2019-06-26T13:01:16.311Z,2283
2019-06-26T13:02:17.654Z,2278
2019-06-26T13:03:19.051Z,2171
2019-06-26T13:04:20.444Z,1963
2019-06-26T13:05:21.843Z,1760
2019-06-26T13:06:23.256Z,1642
2019-06-26T13:07:24.635Z,1535
2019-06-26T13:08:26.038Z,1496
2019-06-26T13:09:27.514Z,1473
2019-06-26T13:10:28.782Z,1473
2019-06-26T13:11:30.172Z,1456
2019-06-26T13:12:31.564Z,1451
2019-06-26T13:13:32.958Z,1456
2019-06-26T13:14:34.354Z,1456
2019-06-26T13:15:35.796Z,1468
2019-06-26T13:16:37.168Z,1468
2019-06-26T13:17:38.553Z,1479
2019-06-26T13:18:39.967Z,1490
2019-06-26T13:19:41.327Z,1501
2019-06-26T13:20:52.899Z,1513
2019-06-26T13:21:44.100Z,1524
2019-06-26T13:22:45.466Z,1530
2019-06-26T13:23:46.852Z,1530
2019-06-26T13:24:48.243Z,1541
2019-06-26T13:25:49.621Z,1546
2019-06-26T13:26:54.295Z,1552
2019-06-26T13:27:52.379Z,1563
2019-06-26T13:28:53.755Z,1580
2019-06-26T13:29:55.163Z,1586
2019-06-26T13:30:56.564Z,1591
2019-06-26T13:31:57.934Z,1597
2019-06-26T13:32:59.330Z,1614
2019-06-26T13:34:00.725Z,1625
2019-06-26T13:35:02.111Z,1648
2019-06-26T13:36:03.510Z,1653
2019-06-26T13:37:07.297Z,1653
2019-06-26T13:38:06.253Z,1653
2019-06-26T13:39:07.640Z,1665
2019-06-26T13:40:09.024Z,1670
2019-06-26T13:41:10.419Z,1665
2019-06-26T13:42:11.800Z,1659
2019-06-26T13:43:13.196Z,1653
2019-06-26T13:44:14.590Z,1659
2019-06-26T13:45:15.992Z,1659
2019-06-26T13:46:17.370Z,1659
2019-06-26T13:47:18.761Z,1648
2019-06-26T13:48:20.193Z,1636
2019-06-26T13:49:21.539Z,1625
2019-06-26T13:50:22.935Z,1620
2019-06-26T13:51:24.389Z,1608
2019-06-26T13:52:25.730Z,1603
2019-06-26T13:53:27.124Z,1603
2019-06-26T13:54:28.512Z,1580
2019-06-26T13:55:29.899Z,1586
2019-06-26T13:56:31.349Z,1563
2019-06-26T13:57:32.766Z,1552
2019-06-26T13:58:34.131Z,1535
2019-06-26T13:59:35.524Z,1524
2019-06-26T14:00:36.904Z,1524
2019-06-26T14:01:38.299Z,1507
2019-06-26T14:02:39.699Z,1507
2019-06-26T14:03:41.094Z,1490